Time;durP1;ratioP1;P1;durP2;ratioP2;P2;SDS_P1;SDS_P2;PMS_P1;PMS_P2;Temp;Humidity;BMP_temperature;BMP_pressure;BME280_temperature;BME280_humidity;BME280_pressure;Samples;Min_cycle;Max_cycle;Signal;HPM_P1;HPM_P2
2022/12/13 00:02:08;;;;;;;;;;;;;;;18.23;61.38;100562.91;2248100;78;51534;-76
2022/12/13 00:05:09;;;;;;;;;;;;;;;18.26;61.32;100568.75;2247213;79;51424;-76
2022/12/13 00:08:11;;;;;;;;;;;;;;;18.31;61.23;100568.69;2210795;79;50692;-75
2022/12/13 00:11:13;;;;;;;;;;;;;;;18.32;61.16;100563.16;2230805;79;52355;-76
2022/12/13 00:14:14;;;;;;;;;;;;;;;18.37;61.07;100573.30;2242739;79;51492;-76
2022/12/13 00:17:16;;;;;;;;;;;;;;;18.40;60.99;100562.25;2238593;79;50742;-76
2022/12/13 00:20:17;;;;;;;;;;;;;;;18.41;60.89;100560.70;2220804;79;51572;-76
2022/12/13 00:23:19;;;;;;;;;;;;;;;18.41;60.82;100565.23;2213653;79;50742;-76
2022/12/13 00:26:25;;;;;;;;;;;;;;;18.37;60.87;100559.42;2182570;80;51679;-76
2022/12/13 00:29:26;;;;;;;;;;;;;;;18.32;60.93;100552.45;2211717;80;51559;-75
2022/12/13 00:32:28;;;;;;;;;;;;;;;18.28;61.02;100552.48;2211671;80;51484;-75
2022/12/13 00:35:29;;;;;;;;;;;;;;;18.25;61.11;100543.48;2211469;80;50412;-75
2022/12/13 00:38:31;;;;;;;;;;;;;;;18.19;61.19;100535.67;2182779;80;51147;-75
2022/12/13 00:41:34;;;;;;;;;;;;;;;18.18;61.47;100534.50;2211656;80;50413;-76
2022/12/13 00:44:35;;;;;;;;;;;;;;;18.19;61.57;100532.17;2211683;80;51738;-76
2022/12/13 00:47:37;;;;;;;;;;;;;;;18.23;61.49;100532.11;2200259;79;53567;-76
2022/12/13 00:50:39;;;;;;;;;;;;;;;18.29;61.27;100532.73;2219806;78;52565;-77
2022/12/13 00:53:40;;;;;;;;;;;;;;;18.31;61.14;100530.67;2211735;80;50510;-76
2022/12/13 00:56:42;;;;;;;;;;;;;;;18.30;61.08;100525.01;2211592;80;50592;-76
2022/12/13 00:59:43;;;;;;;;;;;;;;;18.28;61.09;100536.41;2183086;80;51479;-76
2022/12/13 01:02:45;;;;;;;;;;;;;;;18.23;61.20;100524.07;2160296;80;52930;-75
2022/12/13 01:05:47;;;;;;;;;;;;;;;18.17;61.34;100518.95;2211818;80;51445;-76
2022/12/13 01:08:48;;;;;;;;;;;;;;;18.15;61.42;100525.50;2183027;80;51565;-76
2022/12/13 01:11:50;;;;;;;;;;;;;;;18.12;61.59;100530.72;2211880;80;51609;-77
2022/12/13 01:14:51;;;;;;;;;;;;;;;18.11;61.70;100534.91;2160303;80;52277;-75
2022/12/13 01:17:53;;;;;;;;;;;;;;;18.12;61.65;100529.89;2185811;79;51473;-76
2022/12/13 01:20:58;;;;;;;;;;;;;;;18.14;61.60;100527.36;2221889;79;50367;-76
2022/12/13 01:24:02;;;;;;;;;;;;;;;18.19;61.47;100530.83;2211891;80;51505;-76
2022/12/13 01:27:03;;;;;;;;;;;;;;;18.22;61.36;100525.10;2182924;80;52644;-77
2022/12/13 01:30:05;;;;;;;;;;;;;;;18.27;61.28;100528.06;2211940;80;51401;-76
2022/12/13 01:33:07;;;;;;;;;;;;;;;18.29;61.17;100534.07;2183195;80;50406;-76
2022/12/13 01:36:10;;;;;;;;;;;;;;;18.33;61.09;100530.51;2182941;80;50232;-76
2022/12/13 01:39:12;;;;;;;;;;;;;;;18.36;61.01;100520.24;2206605;80;49666;-76
2022/12/13 01:42:14;;;;;;;;;;;;;;;18.40;60.92;100518.05;2211886;80;51579;-76
2022/12/13 01:45:20;;;;;;;;;;;;;;;18.43;60.80;100519.01;2211848;80;51751;-76
2022/12/13 01:48:23;;;;;;;;;;;;;;;18.41;60.80;100527.73;2219832;78;51546;-74
2022/12/13 01:51:27;;;;;;;;;;;;;;;18.37;60.83;100521.92;2239032;79;52679;-75
2022/12/13 01:54:32;;;;;;;;;;;;;;;18.34;60.90;100526.31;2237854;79;51490;-75
2022/12/13 01:57:34;;;;;;;;;;;;;;;18.31;60.96;100521.81;2238319;79;51499;-76
2022/12/13 02:00:35;;;;;;;;;;;;;;;18.26;61.07;100519.68;2238562;78;50316;-76
2022/12/13 02:03:37;;;;;;;;;;;;;;;18.21;61.10;100514.05;2220395;79;50088;-76
2022/12/13 02:06:42;;;;;;;;;;;;;;;18.18;61.25;100520.60;2221682;78;51465;-76
2022/12/13 02:09:44;;;;;;;;;;;;;;;18.16;61.42;100508.41;2248286;78;50443;-75
2022/12/13 02:12:45;;;;;;;;;;;;;;;18.17;61.42;100506.90;2248442;78;50645;-75
2022/12/13 02:15:55;;;;;;;;;;;;;;;18.21;61.36;100506.02;2243076;78;50043;-75
2022/12/13 02:18:58;;;;;;;;;;;;;;;18.28;61.21;100512.30;2247613;79;51465;-76
2022/12/13 02:22:04;;;;;;;;;;;;;;;18.32;61.14;100512.78;2224106;78;50731;-76
2022/12/13 02:25:08;;;;;;;;;;;;;;;18.35;61.03;100515.91;2247338;78;50017;-76
2022/12/13 02:28:28;;;;;;;;;;;;;;;18.34;60.97;100512.92;2201347;79;49665;-76
2022/12/13 02:31:31;;;;;;;;;;;;;;;18.31;60.99;100507.91;2211833;80;51377;-76
2022/12/13 02:34:39;;;;;;;;;;;;;;;18.30;60.97;100508.11;2224695;78;50299;-76
2022/12/13 02:37:45;;;;;;;;;;;;;;;18.26;61.03;100517.00;2211535;80;50688;-76
2022/12/13 02:40:48;;;;;;;;;;;;;;;18.21;61.05;100502.00;2205383;80;52387;-72
2022/12/13 02:43:51;;;;;;;;;;;;;;;18.18;61.04;100498.35;2211450;80;51417;-75
2022/12/13 02:46:58;;;;;;;;;;;;;;;18.14;61.13;100500.58;2218836;78;51463;-73
2022/12/13 02:50:01;;;;;;;;;;;;;;;18.12;61.29;100498.59;2223013;79;51457;-73
2022/12/13 02:53:02;;;;;;;;;;;;;;;18.15;61.29;100501.41;2181802;80;51762;-74
2022/12/13 02:56:04;;;;;;;;;;;;;;;18.16;61.29;100501.71;2211648;80;50630;-74
2022/12/13 02:59:07;;;;;;;;;;;;;;;18.20;61.22;100497.66;2181842;80;50189;-74
2022/12/13 03:02:13;;;;;;;;;;;;;;;18.23;61.14;100505.33;2211650;79;50421;-75
2022/12/13 03:08:41;;;;;;;;;;;;;;;18.29;61.00;100496.58;2211831;80;23244;-75
2022/12/13 03:15:28;;;;;;;;;;;;;;;18.35;60.82;100493.14;2212187;80;22348;-74
2022/12/13 03:18:30;;;;;;;;;;;;;;;18.34;60.78;100496.85;2188955;79;49584;-75
2022/12/13 03:21:38;;;;;;;;;;;;;;;18.32;60.79;100489.50;2214960;79;50208;-74
2022/12/13 03:24:40;;;;;;;;;;;;;;;18.31;60.80;100499.88;2248382;79;51471;-74
2022/12/13 03:27:41;;;;;;;;;;;;;;;18.26;60.86;100494.23;2218544;79;51398;-74
2022/12/13 03:30:43;;;;;;;;;;;;;;;18.22;60.86;100489.77;2206236;79;51213;-75
2022/12/13 03:33:45;;;;;;;;;;;;;;;18.18;60.92;100488.47;2182051;79;51328;-76
2022/12/13 03:36:46;;;;;;;;;;;;;;;18.15;61.01;100486.67;2248029;79;50248;-74
2022/12/13 03:39:48;;;;;;;;;;;;;;;18.13;61.16;100486.02;2248260;79;50626;-74
2022/12/13 03:42:49;;;;;;;;;;;;;;;18.16;61.15;100484.31;2205600;79;52876;-74
2022/12/13 03:45:51;;;;;;;;;;;;;;;18.20;61.09;100480.26;2218791;79;51544;-74
2022/12/13 03:48:53;;;;;;;;;;;;;;;18.25;61.01;100480.53;2218452;79;50677;-74
2022/12/13 03:51:54;;;;;;;;;;;;;;;18.29;60.85;100480.50;2248311;79;51425;-74
2022/12/13 03:54:56;;;;;;;;;;;;;;;18.31;60.79;100478.45;2218726;79;51673;-73
2022/12/13 03:57:58;;;;;;;;;;;;;;;18.31;60.76;100474.94;2248117;79;50610;-74
2022/12/13 04:00:59;;;;;;;;;;;;;;;18.26;60.93;100470.13;2248258;79;51557;-73
2022/12/13 04:04:01;;;;;;;;;;;;;;;18.24;60.88;100477.03;2248397;78;51512;-75
2022/12/13 04:07:02;;;;;;;;;;;;;;;18.18;60.91;100470.23;2218223;79;52281;-75
2022/12/13 04:10:04;;;;;;;;;;;;;;;18.16;60.83;100473.59;2248313;79;50337;-74
2022/12/13 04:16:25;;;;;;;;;;;;;;;18.10;60.95;100467.14;2211819;80;22261;-75
2022/12/13 04:19:27;;;;;;;;;;;;;;;18.09;61.08;100466.83;2183047;80;52504;-76
2022/12/13 04:22:28;;;;;;;;;;;;;;;18.12;61.04;100466.97;2211778;80;51424;-74
2022/12/13 04:25:30;;;;;;;;;;;;;;;18.13;60.99;100467.28;2211758;80;50257;-75
2022/12/13 04:28:31;;;;;;;;;;;;;;;18.15;60.94;100467.93;2183099;80;49978;-76
2022/12/13 04:31:33;;;;;;;;;;;;;;;18.17;60.90;100470.75;2183153;80;51172;-76
2022/12/13 04:34:34;;;;;;;;;;;;;;;18.19;60.92;100472.73;2211817;80;50684;-75
2022/12/13 04:37:36;;;;;;;;;;;;;;;18.24;60.84;100472.19;2211519;80;51511;-75
2022/12/13 04:40:38;;;;;;;;;;;;;;;18.27;60.77;100474.49;2207225;79;50765;-76
2022/12/13 04:43:39;;;;;;;;;;;;;;;18.30;60.70;100472.78;2205876;79;52298;-76
2022/12/13 04:46:41;;;;;;;;;;;;;;;18.33;60.64;100471.06;2218257;79;52291;-76
2022/12/13 04:49:42;;;;;;;;;;;;;;;18.33;60.54;100477.76;2248442;79;50345;-75
2022/12/13 04:52:44;;;;;;;;;;;;;;;18.32;60.55;100476.11;2248339;79;51449;-74
2022/12/13 04:55:46;;;;;;;;;;;;;;;18.28;60.56;100486.34;2218870;79;52391;-74
2022/12/13 04:58:47;;;;;;;;;;;;;;;18.25;60.62;100488.57;2218845;79;50150;-74
2022/12/13 05:01:49;;;;;;;;;;;;;;;18.19;60.61;100477.27;2248475;79;50228;-75
2022/12/13 05:04:51;;;;;;;;;;;;;;;18.17;60.67;100485.98;2248471;79;50745;-75
2022/12/13 05:07:52;;;;;;;;;;;;;;;18.13;60.73;100483.34;2218720;79;51096;-76
2022/12/13 05:10:54;;;;;;;;;;;;;;;18.11;60.91;100477.34;2216928;79;49837;-76
2022/12/13 05:13:55;;;;;;;;;;;;;;;18.11;60.93;100477.34;2224083;79;50394;-75
2022/12/13 05:16:57;;;;;;;;;;;;;;;18.16;60.88;100477.61;2181937;80;50252;-76
2022/12/13 05:19:59;;;;;;;;;;;;;;;18.23;60.69;100478.55;2159282;80;52461;-76
2022/12/13 05:23:00;;;;;;;;;;;;;;;18.26;60.57;100479.51;2181995;80;50259;-75
2022/12/13 05:26:02;;;;;;;;;;;;;;;18.25;60.54;100475.18;2211661;80;50304;-75
2022/12/13 05:29:03;;;;;;;;;;;;;;;18.23;60.55;100473.19;2211856;80;50616;-75
2022/12/13 05:32:05;;;;;;;;;;;;;;;18.20;60.53;100476.24;2189704;79;52503;-76
2022/12/13 05:35:07;;;;;;;;;;;;;;;18.16;60.69;100481.63;2212440;79;51403;-76
2022/12/13 05:38:08;;;;;;;;;;;;;;;18.13;60.74;100482.83;2183768;80;50051;-74
2022/12/13 05:41:11;;;;;;;;;;;;;;;18.10;60.66;100477.02;2213274;79;50079;-73
2022/12/13 05:44:13;;;;;;;;;;;;;;;18.08;60.63;100475.86;2232655;78;51238;-74
2022/12/13 05:47:15;;;;;;;;;;;;;;;18.09;60.55;100474.03;2219704;79;50290;-74
2022/12/13 05:50:17;;;;;;;;;;;;;;;18.12;60.39;100476.34;2219602;79;50200;-72
2022/12/13 05:53:18;;;;;;;;;;;;;;;18.14;60.30;100466.28;2219577;79;50640;-72
2022/12/13 05:56:20;;;;;;;;;;;;;;;18.14;60.17;100464.43;2219423;79;52573;-72
2022/12/13 05:59:22;;;;;;;;;;;;;;;18.15;60.12;100462.58;2234266;78;51445;-75
2022/12/13 06:02:23;;;;;;;;;;;;;;;18.17;60.05;100468.07;2183631;80;51647;-74
2022/12/13 06:05:25;;;;;;;;;;;;;;;18.21;59.87;100465.84;2183607;80;51515;-74
2022/12/13 06:08:27;;;;;;;;;;;;;;;18.24;59.74;100471.68;2183394;80;52327;-74
2022/12/13 06:11:28;;;;;;;;;;;;;;;18.26;59.62;100480.84;2221966;79;51534;-75
2022/12/13 06:14:30;;;;;;;;;;;;;;;18.25;59.54;100473.84;2195317;80;51467;-74
2022/12/13 06:17:33;;;;;;;;;;;;;;;18.22;59.39;100464.84;2211902;80;51469;-75
2022/12/13 06:20:35;;;;;;;;;;;;;;;18.19;59.44;100473.25;2206565;79;51859;-74
2022/12/13 06:23:36;;;;;;;;;;;;;;;18.17;59.47;100480.63;2182065;80;49982;-74
2022/12/13 06:26:38;;;;;;;;;;;;;;;18.12;59.45;100484.37;2211936;80;50297;-74
2022/12/13 06:29:39;;;;;;;;;;;;;;;18.08;59.58;100483.89;2212155;80;50743;-75
2022/12/13 06:32:41;;;;;;;;;;;;;;;18.05;59.59;100486.42;2212212;80;51479;-75
2022/12/13 06:35:43;;;;;;;;;;;;;;;18.04;59.63;100494.14;2205488;79;50292;-74
2022/12/13 06:38:45;;;;;;;;;;;;;;;18.05;59.57;100489.10;2248538;79;50290;-74
2022/12/13 06:41:46;;;;;;;;;;;;;;;18.10;60.38;100498.44;2235961;78;50747;-74
2022/12/13 06:44:50;;;;;;;;;;;;;;;18.14;60.47;100498.41;2207201;79;51275;-75
2022/12/13 06:47:51;;;;;;;;;;;;;;;18.18;60.42;100498.35;2231266;78;22223;-75
2022/12/13 06:50:53;;;;;;;;;;;;;;;18.21;60.40;100506.87;2212168;80;50390;-75
2022/12/13 06:53:55;;;;;;;;;;;;;;;18.25;60.26;100504.64;2231458;79;51502;-74
2022/12/13 06:56:56;;;;;;;;;;;;;;;18.22;60.18;100506.35;2212033;79;51214;-74
2022/12/13 06:59:58;;;;;;;;;;;;;;;18.17;60.12;100510.92;2248830;78;50634;-75
2022/12/13 07:03:00;;;;;;;;;;;;;;;18.17;60.11;100520.80;2219315;79;51626;-75
2022/12/13 07:06:05;;;;;;;;;;;;;;;18.13;60.12;100512.80;2248555;78;51462;-75
2022/12/13 07:09:07;;;;;;;;;;;;;;;18.08;60.18;100517.88;2219038;79;53372;-74
2022/12/13 07:12:08;;;;;;;;;;;;;;;18.03;60.28;100519.27;2231010;79;50762;-73
2022/12/13 07:15:10;;;;;;;;;;;;;;;18.03;60.31;100520.61;2226443;79;51516;-73
2022/12/13 07:18:12;;;;;;;;;;;;;;;18.02;60.38;100521.60;2219448;79;50437;-76
2022/12/13 07:21:14;;;;;;;;;;;;;;;18.08;60.25;100518.70;2216413;79;51212;-74
2022/12/13 07:24:15;;;;;;;;;;;;;;;18.11;60.20;100520.17;2234017;79;50462;-75
2022/12/13 07:27:17;;;;;;;;;;;;;;;18.12;60.14;100528.55;2209045;79;50369;-74
2022/12/13 07:30:18;;;;;;;;;;;;;;;18.16;60.03;100529.34;2193027;79;50151;-75
2022/12/13 07:33:20;;;;;;;;;;;;;;;18.19;59.87;100534.84;2203837;80;50797;-75
2022/12/13 07:36:22;;;;;;;;;;;;;;;18.24;59.72;100532.45;2202271;79;51615;-75
2022/12/13 07:39:27;;;;;;;;;;;;;;;18.26;59.59;100537.09;2245098;79;52003;-75
2022/12/13 07:42:28;;;;;;;;;;;;;;;18.25;59.52;100537.61;2241289;79;51571;-75
2022/12/13 07:45:30;;;;;;;;;;;;;;;18.23;59.59;100545.50;2197990;79;50971;-73
2022/12/13 07:48:32;;;;;;;;;;;;;;;18.19;59.53;100539.69;2241808;79;51682;-74
2022/12/13 07:51:34;;;;;;;;;;;;;;;18.21;59.38;100548.86;2239660;79;51520;-74
2022/12/13 07:54:35;;;;;;;;;;;;;;;18.23;59.25;100550.86;2231645;79;50809;-74
2022/12/13 07:57:37;;;;;;;;;;;;;;;18.17;59.30;100552.94;2198616;79;52561;-74
2022/12/13 08:00:39;;;;;;;;;;;;;;;18.19;59.27;100551.73;2195139;79;51415;-74
2022/12/13 08:03:40;;;;;;;;;;;;;;;18.24;59.09;100557.89;2201599;79;51473;-74
2022/12/13 08:06:42;;;;;;;;;;;;;;;18.28;58.90;100556.49;2199843;79;50294;-74
2022/12/13 08:09:44;;;;;;;;;;;;;;;18.28;58.86;100552.48;2192775;80;51653;-74
2022/12/13 08:12:45;;;;;;;;;;;;;;;18.39;58.56;100557.37;2214004;79;51465;-75
2022/12/13 08:15:47;;;;;;;;;;;;;;;18.42;58.38;100558.37;2203421;79;51495;-75
2022/12/13 08:18:48;;;;;;;;;;;;;;;18.47;58.21;100572.05;2191741;79;51466;-75
2022/12/13 08:21:54;;;;;;;;;;;;;;;18.53;57.99;100560.27;2176649;79;52318;-74
2022/12/13 08:24:56;;;;;;;;;;;;;;;18.46;58.09;100563.66;2184140;80;50676;-77
2022/12/13 08:27:58;;;;;;;;;;;;;;;18.36;58.49;100564.44;2215362;78;50264;-76
2022/12/13 08:31:03;;;;;;;;;;;;;;;18.33;58.59;100561.31;2201409;79;50382;-76
2022/12/13 08:34:05;;;;;;;;;;;;;;;18.34;58.45;100566.50;2214645;78;52730;-76
2022/12/13 08:37:07;;;;;;;;;;;;;;;18.25;58.62;100564.91;2201643;79;50644;-76
2022/12/13 08:40:09;;;;;;;;;;;;;;;18.24;58.56;100571.28;2212047;79;50740;-76
2022/12/13 08:43:11;;;;;;;;;;;;;;;18.25;58.55;100576.44;2223244;79;51540;-77
2022/12/13 08:46:13;;;;;;;;;;;;;;;18.29;58.41;100570.23;2160714;79;52619;-74
2022/12/13 08:49:15;;;;;;;;;;;;;;;18.29;58.41;100574.25;2217764;79;49997;-73
2022/12/13 08:52:18;;;;;;;;;;;;;;;18.34;58.31;100580.38;2218934;79;51014;-73
2022/12/13 08:55:19;;;;;;;;;;;;;;;18.36;58.16;100581.85;2248863;79;50726;-74
2022/12/13 08:58:21;;;;;;;;;;;;;;;18.38;58.07;100587.86;2218802;79;51051;-73
2022/12/13 09:01:22;;;;;;;;;;;;;;;18.40;58.07;100591.20;2200843;79;51495;-73
2022/12/13 09:04:24;;;;;;;;;;;;;;;18.42;58.06;100591.00;2217466;79;52144;-73
2022/12/13 09:07:26;;;;;;;;;;;;;;;18.44;58.10;100583.61;2224697;79;50597;-74
2022/12/13 09:10:28;;;;;;;;;;;;;;;18.54;57.94;100583.35;2185024;79;48789;-74
2022/12/13 09:13:31;;;;;;;;;;;;;;;18.57;57.85;100584.31;2197526;79;51593;-75
2022/12/13 09:16:35;;;;;;;;;;;;;;;18.60;57.79;100586.63;2194553;79;51507;-73
2022/12/13 09:19:36;;;;;;;;;;;;;;;18.54;57.92;100584.17;2231892;79;22577;-74
2022/12/13 09:22:38;;;;;;;;;;;;;;;18.44;58.18;100584.95;2191723;79;49568;-73
2022/12/13 09:25:39;;;;;;;;;;;;;;;18.42;58.26;100591.86;2238577;78;51572;-73
2022/12/13 09:28:41;;;;;;;;;;;;;;;18.41;58.30;100592.02;2225210;78;51504;-74
2022/12/13 09:31:42;;;;;;;;;;;;;;;18.32;58.67;100593.97;2236009;79;51703;-72
2022/12/13 09:34:44;;;;;;;;;;;;;;;18.30;58.52;100595.16;2211527;79;52318;-72
2022/12/13 09:37:46;;;;;;;;;;;;;;;18.25;58.75;100591.69;2221231;79;51492;-73
2022/12/13 09:40:48;;;;;;;;;;;;;;;18.33;58.52;100589.44;2222150;78;51513;-73
2022/12/13 09:43:51;;;;;;;;;;;;;;;18.39;58.27;100589.52;2227802;79;50298;-72
2022/12/13 09:46:53;;;;;;;;;;;;;;;18.48;58.02;100583.59;2228351;78;50059;-73
2022/12/13 09:49:54;;;;;;;;;;;;;;;18.58;57.67;100587.34;2232784;79;50272;-73
2022/12/13 09:52:56;;;;;;;;;;;;;;;18.67;57.42;100584.88;2224087;79;49552;-71
2022/12/13 09:55:58;;;;;;;;;;;;;;;18.63;57.42;100582.26;2240244;79;51550;-72
2022/12/13 09:58:59;;;;;;;;;;;;;;;18.58;57.43;100582.80;2232080;78;51231;-74
2022/12/13 10:02:17;;;;;;;;;;;;;;;18.50;57.62;100579.70;2199244;79;50776;-73
2022/12/13 10:05:20;;;;;;;;;;;;;;;18.44;57.69;100577.74;2238072;79;50719;-73
2022/12/13 10:08:23;;;;;;;;;;;;;;;18.39;57.78;100581.48;2242686;78;50773;-73
2022/12/13 10:11:25;;;;;;;;;;;;;;;18.33;57.83;100579.55;2217141;79;50190;-73
2022/12/13 10:14:30;;;;;;;;;;;;;;;18.37;57.71;100578.17;2238901;79;50665;-75
2022/12/13 10:17:33;;;;;;;;;;;;;;;18.38;57.65;100583.02;2243109;78;51123;-74
2022/12/13 10:20:35;;;;;;;;;;;;;;;18.32;58.00;100579.75;2215034;79;50458;-72
2022/12/13 10:23:36;;;;;;;;;;;;;;;;;;2182259;79;51507;-72
2022/12/13 10:26:38;;;;;;;;;;;;;;;18.41;57.74;100581.31;2229643;79;51613;-73
2022/12/13 10:29:57;;;;;;;;;;;;;;;18.41;57.67;100576.78;2219027;79;50804;-73
2022/12/13 10:32:59;;;;;;;;;;;;;;;18.50;57.44;100574.34;2230626;79;51442;-72
2022/12/13 10:36:02;;;;;;;;;;;;;;;18.55;57.26;100570.27;2199558;79;49745;-72
2022/12/13 10:39:03;;;;;;;;;;;;;;;18.56;57.13;100569.27;2194267;79;51492;-73
2022/12/13 10:42:06;;;;;;;;;;;;;;;18.58;56.99;100570.75;2227830;78;51553;-72
2022/12/13 10:45:09;;;;;;;;;;;;;;;18.64;56.86;100564.63;2185717;79;50722;-73
2022/12/13 10:48:18;;;;;;;;;;;;;;;18.66;56.79;100562.61;2195629;79;51032;-73
2022/12/13 10:51:20;;;;;;;;;;;;;;;18.72;56.48;100554.33;2221117;79;51583;-72
2022/12/13 10:54:26;;;;;;;;;;;;;;;18.68;56.44;100554.39;2231605;79;51717;-72
2022/12/13 10:57:28;;;;;;;;;;;;;;;18.63;56.50;100556.28;2230184;79;51539;-72
2022/12/13 11:00:30;;;;;;;;;;;;;;;18.55;56.60;100555.53;2196220;79;50998;-73
2022/12/13 11:03:32;;;;;;;;;;;;;;;18.49;56.70;100561.95;2237049;79;51494;-72
2022/12/13 11:06:41;;;;;;;;;;;;;;;18.48;56.71;100565.66;2233020;79;50427;-73
2022/12/13 11:09:42;;;;;;;;;;;;;;;18.41;56.88;100555.86;2238837;79;50659;-72
2022/12/13 11:12:44;;;;;;;;;;;;;;;18.39;56.83;100556.03;2195734;79;51029;-72
2022/12/13 11:15:46;;;;;;;;;;;;;;;18.47;56.66;100557.31;2229933;78;51618;-71
2022/12/13 11:18:49;;;;;;;;;;;;;;;18.47;56.59;100552.43;2226028;79;51556;-72
2022/12/13 11:21:50;;;;;;;;;;;;;;;18.55;56.40;100547.00;2216626;79;51552;-71
2022/12/13 11:24:53;;;;;;;;;;;;;;;18.60;56.23;100550.44;2210398;79;51107;-72
2022/12/13 11:27:56;;;;;;;;;;;;;;;18.64;56.08;100542.37;2220898;79;50039;-73
2022/12/13 11:30:59;;;;;;;;;;;;;;;18.70;55.86;100545.15;2229792;79;50284;-72
2022/12/13 11:34:03;;;;;;;;;;;;;;;18.70;55.80;100549.17;2214461;79;50372;-71
2022/12/13 11:37:06;;;;;;;;;;;;;;;18.64;56.04;100542.37;2212365;78;52425;-72
2022/12/13 11:40:13;;;;;;;;;;;;;;;18.61;56.12;100545.42;2218603;79;51526;-72
2022/12/13 11:43:20;;;;;;;;;;;;;;;18.51;56.38;100540.34;2216059;78;50295;-74
2022/12/13 11:46:23;;;;;;;;;;;;;;;18.45;56.55;100545.94;2236256;78;50176;-73
2022/12/13 11:49:41;;;;;;;;;;;;;;;18.40;56.85;100539.47;2170209;80;51011;-71
2022/12/13 11:52:44;;;;;;;;;;;;;;;18.31;57.16;100544.06;2226130;78;50413;-74
2022/12/13 11:55:50;;;;;;;;;;;;;;;18.29;57.10;100551.48;2244310;79;50784;-72
2022/12/13 11:59:06;;;;;;;;;;;;;;;18.36;56.97;100544.86;2226236;79;51557;-72
2022/12/13 12:02:15;;;;;;;;;;;;;;;18.41;56.83;100543.80;2184807;79;50979;-73
2022/12/13 12:05:19;;;;;;;;;;;;;;;18.50;56.57;100542.20;2224764;79;51334;-74
2022/12/13 12:08:25;;;;;;;;;;;;;;;18.48;56.77;100541.54;2237198;79;51587;-73
2022/12/13 12:11:28;;;;;;;;;;;;;;;18.50;56.71;100543.53;2240296;79;50766;-73
2022/12/13 12:14:47;;;;;;;;;;;;;;;18.54;56.64;100546.66;2203042;79;51445;-73
2022/12/13 12:17:49;;;;;;;;;;;;;;;18.57;56.64;100544.95;2247880;79;50258;-74
2022/12/13 12:20:52;;;;;;;;;;;;;;;18.61;56.60;100552.13;2245821;79;50949;-74
2022/12/13 12:23:55;;;;;;;;;;;;;;;18.66;56.33;100543.84;2222112;79;51026;-72
2022/12/13 12:27:15;;;;;;;;;;;;;;;18.58;56.62;100543.13;2226567;79;49661;-75
2022/12/13 12:30:26;;;;;;;;;;;;;;;18.47;56.89;100540.38;2244133;79;50461;-73
2022/12/13 12:33:31;;;;;;;;;;;;;;;18.36;57.26;100550.22;2235447;78;23586;-72
2022/12/13 12:36:46;;;;;;;;;;;;;;;18.30;57.42;100547.77;2218300;78;50444;-73
2022/12/13 12:39:53;;;;;;;;;;;;;;;18.21;57.59;100543.50;2220151;78;53014;-73
2022/12/13 12:43:08;;;;;;;;;;;;;;;18.14;57.68;100545.27;2227988;79;50409;-73
2022/12/13 12:46:17;;;;;;;;;;;;;;;18.06;58.19;100540.31;2226064;78;50376;-73
2022/12/13 12:49:33;;;;;;;;;;;;;;;18.02;58.41;100540.34;2210704;78;50315;-72
2022/12/13 12:52:45;;;;;;;;;;;;;;;18.04;58.56;100541.52;2222668;79;49685;-74
2022/12/13 12:55:52;;;;;;;;;;;;;;;18.12;58.34;100541.94;2214940;79;51601;-74
2022/12/13 12:58:58;;;;;;;;;;;;;;;18.16;58.18;100541.40;2225496;79;51506;-73
2022/12/13 13:02:16;;;;;;;;;;;;;;;18.23;58.03;100546.84;2202442;78;51664;-75
2022/12/13 13:05:23;;;;;;;;;;;;;;;18.26;57.91;100543.30;2194431;79;50787;-75
2022/12/13 13:08:35;;;;;;;;;;;;;;;18.28;57.79;100549.80;2222185;79;50768;-75
2022/12/13 13:11:41;;;;;;;;;;;;;;;18.27;57.78;100552.16;2234161;79;51428;-75
2022/12/13 13:14:41;;;;;;;;;;;;;;;18.22;57.83;100559.41;2229365;79;22879;-74
2022/12/13 13:17:45;;;;;;;;;;;;;;;18.17;57.92;100550.27;2231427;78;50678;-74
2022/12/13 13:20:46;;;;;;;;;;;;;;;18.13;58.01;100547.61;2213906;79;49646;-75
2022/12/13 13:23:48;;;;;;;;;;;;;;;18.11;58.06;100553.65;2192102;79;50379;-73
2022/12/13 13:26:53;;;;;;;;;;;;;;;18.05;58.12;100544.50;2245392;79;50772;-74
2022/12/13 13:29:56;;;;;;;;;;;;;;;18.04;58.02;100550.88;2236950;79;50427;-75
2022/12/13 13:32:58;;;;;;;;;;;;;;;18.06;57.89;100541.66;2230157;79;51195;-74
2022/12/13 13:35:59;;;;;;;;;;;;;;;;;;2227358;79;50428;-75
2022/12/13 13:39:00;;;;;;;;;;;;;;;18.13;57.54;100546.27;2224107;79;50688;-75
2022/12/13 13:42:16;;;;;;;;;;;;;;;18.14;57.43;100544.77;2233075;79;51584;-75
2022/12/13 13:45:21;;;;;;;;;;;;;;;18.16;57.27;100541.40;2219631;78;51579;-73
2022/12/13 13:48:38;;;;;;;;;;;;;;;18.18;57.17;100546.04;2162585;80;51337;-74
2022/12/13 13:52:00;;;;;;;;;;;;;;;18.24;57.05;100548.52;2211692;80;50326;-75
2022/12/13 13:55:03;;;;;;;;;;;;;;;18.25;56.94;100546.98;2214070;79;50474;-74
2022/12/13 13:58:15;;;;;;;;;;;;;;;18.30;56.83;100553.13;2238643;79;50729;-74
2022/12/13 14:01:22;;;;;;;;;;;;;;;18.33;56.71;100550.59;2190063;79;51273;-75
2022/12/13 14:04:42;;;;;;;;;;;;;;;18.34;56.56;100554.92;2203067;79;50245;-74
2022/12/13 14:07:45;;;;;;;;;;;;;;;18.32;56.54;100552.45;2232325;79;51517;-75
2022/12/13 14:10:49;;;;;;;;;;;;;;;18.27;56.56;100540.11;2239694;79;51577;-73
2022/12/13 14:14:08;;;;;;;;;;;;;;;18.22;56.64;100543.84;2228117;78;52747;-73
2022/12/13 14:17:31;;;;;;;;;;;;;;;18.17;56.70;100534.19;2222934;79;52188;-74
2022/12/13 14:20:36;;;;;;;;;;;;;;;18.11;56.80;100537.58;2211858;80;22248;-74
2022/12/13 14:23:48;;;;;;;;;;;;;;;18.08;56.81;100536.61;2224792;79;50513;-73
2022/12/13 14:27:01;;;;;;;;;;;;;;;18.08;56.95;100540.62;2208877;79;51926;-74
2022/12/13 14:30:02;;;;;;;;;;;;;;;18.12;56.75;100541.42;2240457;79;50799;-74
2022/12/13 14:33:04;;;;;;;;;;;;;;;18.15;56.61;100541.05;2233719;79;50224;-74
2022/12/13 14:36:06;;;;;;;;;;;;;;;18.20;56.50;100539.17;2241149;79;50302;-74
2022/12/13 14:39:14;;;;;;;;;;;;;;;18.24;56.35;100548.52;2218647;79;51163;-74
2022/12/13 14:42:23;;;;;;;;;;;;;;;18.28;56.23;100548.45;2248108;79;50384;-74
2022/12/13 14:45:28;;;;;;;;;;;;;;;18.33;56.11;100543.90;2229418;79;51519;-74
2022/12/13 14:48:31;;;;;;;;;;;;;;;18.36;55.96;100548.37;2195023;80;23564;-74
2022/12/13 14:51:37;;;;;;;;;;;;;;;18.35;55.89;100547.23;2208509;79;52581;-74
2022/12/13 14:54:46;;;;;;;;;;;;;;;18.33;55.86;100551.42;2227221;79;50807;-74
2022/12/13 14:57:49;;;;;;;;;;;;;;;18.28;55.95;100555.16;2224906;79;50773;-74
2022/12/13 15:00:50;;;;;;;;;;;;;;;18.22;55.98;100551.88;2227595;79;51559;-74
2022/12/13 15:03:52;;;;;;;;;;;;;;;18.16;56.14;100546.76;2210403;79;52350;-74
2022/12/13 15:07:02;;;;;;;;;;;;;;;18.11;56.25;100546.95;2229982;79;52383;-74
2022/12/13 15:10:05;;;;;;;;;;;;;;;18.10;56.33;100545.30;2226849;79;51509;-73
2022/12/13 15:13:06;;;;;;;;;;;;;;;18.11;56.25;100546.95;2218384;79;51338;-74
2022/12/13 15:16:10;;;;;;;;;;;;;;;18.12;56.28;100534.73;2217705;79;51439;-74
2022/12/13 15:19:15;;;;;;;;;;;;;;;18.15;56.14;100542.91;2206399;80;51454;-74
2022/12/13 15:22:17;;;;;;;;;;;;;;;18.16;56.09;100536.52;2227744;79;52620;-73
2022/12/13 15:25:18;;;;;;;;;;;;;;;18.19;56.01;100544.22;2219624;79;50704;-74
2022/12/13 15:28:20;;;;;;;;;;;;;;;18.22;55.87;100549.20;2240756;79;51535;-74
2022/12/13 15:31:22;;;;;;;;;;;;;;;18.22;55.97;100547.87;2234294;79;50532;-74
2022/12/13 15:34:28;;;;;;;;;;;;;;;18.25;55.82;100551.52;2233848;79;50793;-74
2022/12/13 15:37:31;;;;;;;;;;;;;;;18.27;55.76;100558.86;2229740;79;50443;-75
2022/12/13 15:40:33;;;;;;;;;;;;;;;18.31;55.65;100555.30;2165278;81;51308;-74
2022/12/13 15:43:39;;;;;;;;;;;;;;;18.34;55.56;100552.24;2209687;79;50639;-75
2022/12/13 15:46:43;;;;;;;;;;;;;;;18.40;55.40;100552.87;2224816;79;50499;-73
2022/12/13 15:49:57;;;;;;;;;;;;;;;18.41;55.22;100554.00;2238370;79;50783;-73
2022/12/13 15:53:00;;;;;;;;;;;;;;;18.38;55.24;100557.06;2170836;79;51713;-77
2022/12/13 15:56:02;;;;;;;;;;;;;;;18.36;55.30;100558.25;2213943;79;50763;-76